Time;durP1;ratioP1;P1;durP2;ratioP2;P2;SDS_P1;SDS_P2;PMS_P1;PMS_P2;Temp;Humidity;BMP_temperature;BMP_pressure;BME280_temperature;BME280_humidity;BME280_pressure;Samples;Min_cycle;Max_cycle;Signal;HPM_P1;HPM_P2
2023/01/16 00:00:56;;;;;;;5.95;1.50;;;4.80;99.90;;;;;;5075332;28;20442;-62
2023/01/16 00:03:23;;;;;;;7.23;1.80;;;4.80;99.90;;;;;;5081305;28;20433;-62
2023/01/16 00:05:50;;;;;;;3.40;1.50;;;4.80;99.90;;;;;;5078695;28;20457;-62
2023/01/16 00:08:18;;;;;;;4.63;1.48;;;4.80;99.90;;;;;;5078087;28;20496;-59
2023/01/16 00:10:45;;;;;;;7.38;1.92;;;4.70;99.90;;;;;;5069465;28;20473;-62
2023/01/16 00:13:12;;;;;;;4.82;1.52;;;4.70;99.90;;;;;;5069761;28;20813;-61
2023/01/16 00:15:44;;;;;;;5.85;1.90;;;4.80;99.90;;;;;;5069210;28;20412;-60
2023/01/16 00:18:10;;;;;;;3.83;1.42;;;4.80;99.90;;;;;;5069158;28;20536;-61
2023/01/16 00:20:37;;;;;;;5.03;1.10;;;4.80;99.90;;;;;;5075269;28;20832;-62
2023/01/16 00:23:04;;;;;;;3.20;1.40;;;4.80;99.90;;;;;;5080979;28;20467;-61
2023/01/16 00:25:32;;;;;;;4.87;1.73;;;4.80;99.90;;;;;;5078408;28;20477;-61
2023/01/16 00:27:59;;;;;;;5.85;1.55;;;4.80;99.90;;;;;;5083450;28;20938;-61
2023/01/16 00:30:25;;;;;;;3.75;1.52;;;4.80;99.90;;;;;;5083285;28;20465;-62
2023/01/16 00:32:52;;;;;;;4.82;1.50;;;4.90;99.90;;;;;;5080492;28;20410;-61
2023/01/16 00:35:18;;;;;;;4.65;1.38;;;4.90;99.90;;;;;;5078572;28;20467;-62
2023/01/16 00:37:45;;;;;;;4.43;1.63;;;4.80;99.90;;;;;;5077393;28;20430;-62
2023/01/16 00:40:12;;;;;;;4.03;1.55;;;4.80;99.90;;;;;;5082529;28;20447;-61
2023/01/16 00:42:40;;;;;;;2.55;1.48;;;4.80;99.90;;;;;;5080091;28;20417;-61
2023/01/16 00:45:09;;;;;;;7.32;1.80;;;4.80;99.90;;;;;;5079172;28;20422;-61
2023/01/16 00:47:35;;;;;;;4.05;1.80;;;4.80;99.90;;;;;;5079313;28;20481;-61
2023/01/16 00:50:02;;;;;;;2.92;1.33;;;4.80;99.90;;;;;;5081096;28;20465;-60
2023/01/16 00:52:29;;;;;;;4.30;1.65;;;4.90;99.90;;;;;;5077774;28;20503;-62
2023/01/16 00:54:56;;;;;;;5.05;1.45;;;4.90;99.90;;;;;;5080249;28;20504;-61
2023/01/16 00:57:23;;;;;;;4.05;1.63;;;5.10;99.90;;;;;;5079031;28;20481;-62
2023/01/16 00:59:51;;;;;;;3.20;1.52;;;4.90;99.90;;;;;;5082674;28;20503;-60
2023/01/16 01:02:18;;;;;;;5.97;1.30;;;5.00;99.90;;;;;;5078791;28;21094;-62
2023/01/16 01:04:44;;;;;;;4.10;1.20;;;4.90;99.90;;;;;;5077519;28;20419;-61
2023/01/16 01:07:11;;;;;;;2.97;1.30;;;5.00;99.90;;;;;;5079334;28;20416;-61
2023/01/16 01:09:38;;;;;;;4.30;1.13;;;4.90;99.90;;;;;;5081466;28;20510;-61
2023/01/16 01:12:05;;;;;;;3.92;1.30;;;4.80;99.90;;;;;;5078065;28;20419;-61
2023/01/16 01:14:32;;;;;;;1.97;1.10;;;4.80;99.90;;;;;;5078733;28;20906;-58
2023/01/16 01:17:00;;;;;;;4.70;1.40;;;4.70;99.90;;;;;;5079648;28;20936;-62
2023/01/16 01:19:26;;;;;;;5.55;1.42;;;4.70;99.90;;;;;;5078446;28;20415;-61
2023/01/16 01:21:54;;;;;;;4.05;1.02;;;4.60;99.90;;;;;;5082196;28;20443;-61
2023/01/16 01:24:20;;;;;;;3.70;1.30;;;4.60;99.90;;;;;;5080062;28;20952;-61
2023/01/16 01:26:47;;;;;;;3.83;1.40;;;4.70;99.90;;;;;;5080933;28;20884;-60
2023/01/16 01:29:14;;;;;;;3.95;1.50;;;4.70;99.90;;;;;;5080631;28;20422;-61
2023/01/16 01:31:40;;;;;;;4.17;1.17;;;4.60;99.90;;;;;;5080901;28;20418;-61
2023/01/16 01:34:09;;;;;;;2.65;1.30;;;4.60;99.90;;;;;;5076944;28;20416;-57
2023/01/16 01:36:35;;;;;;;3.88;1.40;;;4.50;99.90;;;;;;5078277;28;20446;-61
2023/01/16 01:39:02;;;;;;;3.88;1.42;;;4.50;99.90;;;;;;5075856;28;20418;-62
2023/01/16 01:41:29;;;;;;;4.22;1.92;;;4.50;99.90;;;;;;5077106;28;20791;-61
2023/01/16 01:43:56;;;;;;;2.38;1.10;;;4.50;99.90;;;;;;5081012;28;20417;-60
2023/01/16 01:46:28;;;;;;;3.40;1.30;;;4.50;99.90;;;;;;5078855;28;20443;-62
2023/01/16 01:49:01;;;;;;;3.33;1.40;;;4.50;99.90;;;;;;5076923;28;20452;-62
2023/01/16 01:51:32;;;;;;;5.25;1.67;;;4.40;99.90;;;;;;5079469;28;20764;-61
2023/01/16 01:54:02;;;;;;;3.10;1.70;;;4.40;99.90;;;;;;5077482;28;20767;-62
2023/01/16 01:56:35;;;;;;;6.93;1.75;;;4.40;99.90;;;;;;5077668;28;20464;-62
2023/01/16 01:59:06;;;;;;;3.70;1.52;;;4.40;99.90;;;;;;5079592;28;20986;-62
2023/01/16 02:01:33;;;;;;;2.83;1.67;;;4.30;99.90;;;;;;5079495;28;20439;-62
2023/01/16 02:04:03;;;;;;;5.00;1.67;;;4.40;99.90;;;;;;5070616;28;20407;-61
2023/01/16 02:06:38;;;;;;;6.73;1.50;;;4.30;99.90;;;;;;5071118;28;20764;-63
2023/01/16 02:09:05;;;;;;;3.33;1.50;;;4.30;99.90;;;;;;5077105;28;20554;-61
2023/01/16 02:11:36;;;;;;;3.17;1.30;;;4.30;99.90;;;;;;5079533;28;20473;-62
2023/01/16 02:14:06;;;;;;;4.40;1.40;;;4.30;99.90;;;;;;5079671;28;20428;-62
2023/01/16 02:19:25;;;;;;;3.93;1.30;;;4.20;99.90;;;;;;5078397;28;20411;-62
2023/01/16 02:22:18;;;;;;;4.25;1.85;;;4.20;99.90;;;;;;5078840;28;20421;-60
2023/01/16 02:25:02;;;;;;;3.60;1.33;;;4.20;99.90;;;;;;5070742;28;20407;-60
2023/01/16 02:27:49;;;;;;;4.80;1.38;;;4.20;99.90;;;;;;5081239;28;20469;-61
2023/01/16 02:30:36;;;;;;;6.88;1.70;;;4.20;99.90;;;;;;5080160;28;20898;-60
2023/01/16 02:33:10;;;;;;;3.22;1.70;;;4.30;99.90;;;;;;5078215;28;20411;-60
2023/01/16 02:35:50;;;;;;;4.35;1.50;;;4.20;99.90;;;;;;5081317;28;20467;-61
2023/01/16 02:38:27;;;;;;;3.30;1.48;;;4.20;99.90;;;;;;5078214;28;20431;-61
2023/01/16 02:41:03;;;;;;;3.53;1.50;;;4.10;99.90;;;;;;5083691;28;20836;-58
2023/01/16 02:43:35;;;;;;;5.97;1.50;;;4.10;99.90;;;;;;5080205;28;20412;-61
2023/01/16 02:46:12;;;;;;;4.57;1.30;;;4.10;99.90;;;;;;5077169;28;20420;-61
2023/01/16 02:48:49;;;;;;;3.20;1.30;;;4.20;99.90;;;;;;5071195;28;20416;-61
2023/01/16 02:51:28;;;;;;;2.42;1.20;;;4.20;99.90;;;;;;5076217;28;20426;-61
2023/01/16 02:54:03;;;;;;;2.90;1.23;;;4.30;99.90;;;;;;5079595;28;20912;-62
2023/01/16 02:56:35;;;;;;;4.60;1.23;;;4.30;99.90;;;;;;5079041;28;20415;-60
2023/01/16 02:59:02;;;;;;;2.78;1.13;;;4.40;99.90;;;;;;5082480;28;20411;-62
2023/01/16 03:01:28;;;;;;;3.60;1.40;;;4.40;99.90;;;;;;5077010;28;20467;-59
2023/01/16 03:04:06;;;;;;;4.45;1.33;;;4.40;99.90;;;;;;5080941;28;20406;-62
2023/01/16 03:06:44;;;;;;;4.13;1.27;;;4.40;99.90;;;;;;5074197;28;20402;-61
2023/01/16 03:09:24;;;;;;;3.85;1.10;;;4.40;99.90;;;;;;5074987;28;20497;-61
2023/01/16 03:12:08;;;;;;;2.53;1.02;;;4.50;99.90;;;;;;5075150;28;20906;-62
2023/01/16 03:14:39;;;;;;;3.20;1.08;;;4.50;99.90;;;;;;5077334;28;20473;-63
2023/01/16 03:17:20;;;;;;;3.20;0.98;;;4.50;99.90;;;;;;5079386;28;20431;-61
2023/01/16 03:20:02;;;;;;;3.58;0.85;;;4.50;99.90;;;;;;5069873;28;20469;-59
2023/01/16 03:22:35;;;;;;;2.35;1.10;;;4.50;99.90;;;;;;5078092;28;20413;-61
2023/01/16 03:25:16;;;;;;;4.18;0.98;;;4.50;99.90;;;;;;5076896;28;20771;-62
2023/01/16 03:27:56;;;;;;;1.70;0.80;;;4.50;99.90;;;;;;5080335;28;20406;-62
2023/01/16 03:30:30;;;;;;;2.13;1.10;;;4.50;99.90;;;;;;5081322;28;20419;-62
2023/01/16 03:33:02;;;;;;;1.80;1.20;;;4.50;99.90;;;;;;5077433;28;20800;-60
2023/01/16 03:35:34;;;;;;;1.30;1.00;;;4.50;99.90;;;;;;5077305;28;20508;-60
2023/01/16 03:38:05;;;;;;;2.70;0.90;;;4.50;99.90;;;;;;5077839;28;20422;-60
2023/01/16 03:40:36;;;;;;;3.00;1.15;;;4.40;99.90;;;;;;5079065;28;20408;-62
2023/01/16 03:43:08;;;;;;;3.30;1.00;;;4.40;99.90;;;;;;5079144;28;20406;-62
2023/01/16 03:45:40;;;;;;;2.95;1.20;;;4.30;99.90;;;;;;5078821;28;20415;-62
2023/01/16 03:48:12;;;;;;;3.03;0.93;;;4.20;99.90;;;;;;5081085;28;20432;-62
2023/01/16 03:50:44;;;;;;;1.77;1.00;;;4.10;99.90;;;;;;5074832;28;20805;-62
2023/01/16 03:53:15;;;;;;;1.60;0.90;;;4.10;99.90;;;;;;5077743;28;20440;-60
2023/01/16 03:55:50;;;;;;;3.00;1.10;;;4.10;99.90;;;;;;5081111;28;20487;-62
2023/01/16 03:58:22;;;;;;;3.17;1.17;;;4.10;99.90;;;;;;5083178;28;20427;-61
2023/01/16 04:00:55;;;;;;;2.08;0.82;;;4.00;99.90;;;;;;5082444;28;20419;-60
2023/01/16 04:03:28;;;;;;;2.45;1.15;;;4.10;99.90;;;;;;5080930;28;20422;-61
2023/01/16 04:06:03;;;;;;;1.90;1.00;;;4.20;99.90;;;;;;5078297;28;20447;-61
2023/01/16 04:08:35;;;;;;;2.05;0.85;;;4.20;99.90;;;;;;5083009;28;20415;-61
2023/01/16 04:11:04;;;;;;;1.40;0.97;;;4.20;99.90;;;;;;5077710;28;20437;-62
2023/01/16 04:13:35;;;;;;;2.80;1.10;;;4.20;99.90;;;;;;5081223;28;20475;-62
2023/01/16 04:16:04;;;;;;;1.80;0.95;;;4.20;99.90;;;;;;5078651;28;20467;-62
2023/01/16 04:18:34;;;;;;;1.40;0.75;;;4.30;99.90;;;;;;5082370;28;20438;-62
2023/01/16 04:21:05;;;;;;;2.90;0.90;;;4.20;99.90;;;;;;5081292;28;20972;-62
2023/01/16 04:23:32;;;;;;;2.30;0.93;;;4.30;99.90;;;;;;5082157;28;20408;-62
2023/01/16 04:25:58;;;;;;;1.17;0.70;;;4.30;99.90;;;;;;5080774;28;20418;-61
2023/01/16 04:28:25;;;;;;;2.17;1.02;;;4.40;99.90;;;;;;5087247;28;20465;-62
2023/01/16 04:30:52;;;;;;;1.65;0.80;;;4.50;99.90;;;;;;5082303;28;20941;-62
2023/01/16 04:33:19;;;;;;;1.57;0.70;;;4.60;99.90;;;;;;5080778;28;20464;-60
2023/01/16 04:35:45;;;;;;;1.38;0.77;;;4.60;99.90;;;;;;5081514;28;20414;-62
2023/01/16 04:38:13;;;;;;;3.05;1.10;;;4.60;99.90;;;;;;5080799;28;20421;-62
2023/01/16 04:40:40;;;;;;;2.15;0.90;;;4.50;99.90;;;;;;5081520;28;20443;-61
2023/01/16 04:43:07;;;;;;;2.97;1.00;;;4.50;99.90;;;;;;5076118;28;20480;-62
2023/01/16 04:45:34;;;;;;;2.10;1.05;;;4.50;99.90;;;;;;5080673;28;20437;-61
2023/01/16 04:48:00;;;;;;;3.07;0.90;;;4.50;99.90;;;;;;5080699;28;20426;-61
2023/01/16 04:50:27;;;;;;;2.70;0.98;;;4.30;99.90;;;;;;5080384;28;20414;-59
2023/01/16 04:52:54;;;;;;;2.38;1.02;;;4.40;99.90;;;;;;5080512;28;20417;-60
2023/01/16 04:55:22;;;;;;;2.13;1.27;;;4.40;99.90;;;;;;5079539;28;20423;-62
2023/01/16 04:57:48;;;;;;;2.45;1.30;;;4.30;99.90;;;;;;5087851;28;20429;-60
2023/01/16 05:00:15;;;;;;;8.68;4.97;;;4.30;99.90;;;;;;5082557;28;20424;-61
2023/01/16 05:02:42;;;;;;;2.78;1.20;;;4.30;99.90;;;;;;5081742;28;20971;-62
2023/01/16 05:05:09;;;;;;;3.63;1.20;;;4.30;99.90;;;;;;5083416;28;20792;-62
2023/01/16 05:07:36;;;;;;;2.45;1.10;;;4.30;99.90;;;;;;5079618;28;20484;-61
2023/01/16 05:10:03;;;;;;;2.30;1.30;;;4.30;99.90;;;;;;5079364;28;20834;-65
2023/01/16 05:12:31;;;;;;;2.40;1.33;;;4.30;99.90;;;;;;5082351;28;20953;-65
2023/01/16 05:14:57;;;;;;;2.97;1.10;;;4.30;99.90;;;;;;5076779;28;20428;-65
2023/01/16 05:17:26;;;;;;;3.10;1.30;;;4.40;99.90;;;;;;5077787;28;20477;-65
2023/01/16 05:19:53;;;;;;;5.50;1.33;;;4.50;99.90;;;;;;5078611;28;20418;-65
2023/01/16 05:22:19;;;;;;;5.43;1.13;;;4.50;99.90;;;;;;5082038;28;20417;-65
2023/01/16 05:24:46;;;;;;;3.05;1.20;;;4.50;99.90;;;;;;5081887;28;20413;-65
2023/01/16 05:27:13;;;;;;;4.27;1.07;;;4.50;99.90;;;;;;5081080;28;20479;-65
2023/01/16 05:29:41;;;;;;;5.40;1.33;;;4.50;99.90;;;;;;5082729;28;20414;-65
2023/01/16 05:32:07;;;;;;;3.35;1.20;;;4.60;99.90;;;;;;5080217;28;20795;-66
2023/01/16 05:34:34;;;;;;;4.55;1.20;;;4.40;99.90;;;;;;5080744;28;20971;-65
2023/01/16 05:37:01;;;;;;;2.92;1.23;;;4.50;99.90;;;;;;5087901;28;20471;-62
2023/01/16 05:39:28;;;;;;;3.33;1.48;;;4.60;99.90;;;;;;5081340;28;20426;-62
2023/01/16 05:41:54;;;;;;;3.17;1.40;;;4.50;99.90;;;;;;5084644;28;20414;-62
2023/01/16 05:44:21;;;;;;;2.50;1.42;;;4.40;99.90;;;;;;5085143;28;20414;-62
2023/01/16 05:46:50;;;;;;;4.60;1.38;;;4.50;99.90;;;;;;5083153;28;20425;-61
2023/01/16 05:49:17;;;;;;;3.33;1.00;;;4.40;99.90;;;;;;5076099;28;20532;-63
2023/01/16 05:51:44;;;;;;;2.88;1.20;;;4.40;99.90;;;;;;5076274;28;20419;-63
2023/01/16 05:54:11;;;;;;;3.03;0.82;;;4.50;99.90;;;;;;5082798;28;20467;-63
2023/01/16 05:56:38;;;;;;;2.75;1.00;;;4.50;99.90;;;;;;5079398;28;20949;-64
2023/01/16 05:59:05;;;;;;;3.90;1.37;;;4.50;99.90;;;;;;5083389;28;20875;-60
2023/01/16 06:01:31;;;;;;;2.85;1.17;;;4.50;99.90;;;;;;5077882;28;20420;-63
2023/01/16 06:03:59;;;;;;;3.00;1.13;;;4.40;99.90;;;;;;5078624;28;20419;-62
2023/01/16 06:06:26;;;;;;;2.83;1.40;;;4.50;99.90;;;;;;5069877;28;20473;-62
2023/01/16 06:08:53;;;;;;;3.30;0.90;;;4.40;99.90;;;;;;5071597;28;20806;-61
2023/01/16 06:11:19;;;;;;;3.75;1.20;;;4.40;99.90;;;;;;5070044;28;20431;-62
2023/01/16 06:13:47;;;;;;;2.97;1.33;;;4.50;99.90;;;;;;5070260;28;20411;-63
2023/01/16 06:16:14;;;;;;;3.90;1.25;;;4.50;99.90;;;;;;5080375;28;20503;-64
2023/01/16 06:18:40;;;;;;;3.25;1.00;;;4.50;99.90;;;;;;5076358;28;20931;-63
2023/01/16 06:21:09;;;;;;;1.88;1.02;;;4.50;99.90;;;;;;5082083;28;20419;-64
2023/01/16 06:23:35;;;;;;;2.90;1.38;;;4.50;99.90;;;;;;5078993;28;20422;-66
2023/01/16 06:26:05;;;;;;;1.42;1.00;;;4.60;99.90;;;;;;5074167;28;20908;-64
2023/01/16 06:28:32;;;;;;;2.60;1.20;;;4.60;99.90;;;;;;5082044;28;20410;-63
2023/01/16 06:30:58;;;;;;;1.20;0.80;;;4.60;99.90;;;;;;5082280;28;20830;-64
2023/01/16 06:33:25;;;;;;;2.65;1.20;;;4.70;99.90;;;;;;5075405;28;20494;-63
2023/01/16 06:35:52;;;;;;;2.63;1.00;;;4.60;99.90;;;;;;5076420;28;20930;-64
2023/01/16 06:38:20;;;;;;;2.97;1.25;;;4.60;99.90;;;;;;5074518;28;20883;-64
2023/01/16 06:40:47;;;;;;;2.85;0.80;;;4.60;99.90;;;;;;5078253;28;20775;-63
2023/01/16 06:43:15;;;;;;;1.93;0.90;;;4.70;99.90;;;;;;5081009;28;20422;-63
2023/01/16 06:45:42;;;;;;;4.65;1.08;;;4.70;99.90;;;;;;5081488;28;20849;-64
2023/01/16 06:48:08;;;;;;;3.92;1.08;;;4.70;99.90;;;;;;5080024;28;20410;-64
2023/01/16 06:50:35;;;;;;;2.30;0.95;;;4.70;99.90;;;;;;5085062;28;20414;-63
2023/01/16 06:53:02;;;;;;;2.33;1.30;;;4.80;99.90;;;;;;5083275;28;20903;-64
2023/01/16 06:55:30;;;;;;;4.32;1.08;;;4.70;99.90;;;;;;5079538;28;20897;-64
2023/01/16 06:57:56;;;;;;;2.08;1.25;;;4.70;99.90;;;;;;5085644;28;20440;-64
2023/01/16 07:00:23;;;;;;;4.22;1.38;;;4.70;99.90;;;;;;5080532;28;20481;-63
2023/01/16 07:02:54;;;;;;;1.55;1.02;;;4.80;99.90;;;;;;5076911;28;20448;-64
2023/01/16 07:05:21;;;;;;;2.55;1.13;;;4.80;99.90;;;;;;5078947;28;20415;-63
2023/01/16 07:07:48;;;;;;;2.25;1.20;;;4.80;99.90;;;;;;5076408;28;20419;-64
2023/01/16 07:10:15;;;;;;;4.17;1.33;;;4.80;99.90;;;;;;5081420;28;20979;-63
2023/01/16 07:12:43;;;;;;;3.00;1.17;;;4.80;99.90;;;;;;5071815;28;20417;-63
2023/01/16 07:23:35;;;;;;;2.30;1.38;;;5.00;99.90;;;;;;5075844;28;20506;-69
2023/01/16 07:26:05;;;;;;;3.92;1.50;;;5.10;99.90;;;;;;5080014;28;20430;-70
2023/01/16 07:28:34;;;;;;;2.20;1.38;;;5.20;96.40;;;;;;5077840;28;20421;-70
2023/01/16 07:31:03;;;;;;;3.65;1.50;;;5.20;96.40;;;;;;5081176;28;20418;-70
2023/01/16 07:33:30;;;;;;;2.20;1.63;;;5.20;96.40;;;;;;5079775;28;20502;-62
2023/01/16 07:35:57;;;;;;;2.35;1.60;;;5.10;95.30;;;;;;5080605;28;20801;-63
2023/01/16 07:38:23;;;;;;;2.00;1.20;;;5.10;99.90;;;;;;5079473;28;20502;-62
2023/01/16 07:40:50;;;;;;;3.05;1.45;;;5.10;94.60;;;;;;5081289;28;20419;-60
2023/01/16 07:43:17;;;;;;;2.87;1.60;;;5.10;96.00;;;;;;5077383;28;20782;-60
2023/01/16 07:45:51;;;;;;;3.60;1.65;;;5.00;98.30;;;;;;5082783;28;20419;-65
2023/01/16 07:48:18;;;;;;;2.97;1.80;;;5.00;99.90;;;;;;5079990;28;20423;-65
2023/01/16 07:50:50;;;;;;;2.97;1.85;;;5.00;99.90;;;;;;5084056;28;20475;-65
2023/01/16 07:53:21;;;;;;;2.30;1.48;;;5.00;99.90;;;;;;5083105;28;20526;-65
2023/01/16 07:55:48;;;;;;;4.53;1.73;;;4.90;99.90;;;;;;5084506;28;20835;-66
2023/01/16 07:58:15;;;;;;;2.63;1.75;;;5.00;99.50;;;;;;5083887;28;20906;-66
2023/01/16 08:00:41;;;;;;;3.30;1.52;;;5.00;99.90;;;;;;5080074;28;20476;-65
2023/01/16 08:03:10;;;;;;;2.90;1.58;;;5.00;99.90;;;;;;5079460;28;20423;-61
2023/01/16 08:05:37;;;;;;;3.42;1.75;;;5.00;96.20;;;;;;5079867;28;20478;-61
2023/01/16 08:08:05;;;;;;;3.13;1.35;;;5.00;96.80;;;;;;5087155;28;20444;-60
2023/01/16 08:10:31;;;;;;;5.13;1.60;;;5.10;95.20;;;;;;5090493;28;20406;-63
2023/01/16 08:12:58;;;;;;;2.08;1.27;;;5.00;95.90;;;;;;5080250;28;20421;-63
2023/01/16 08:15:25;;;;;;;4.78;1.20;;;5.10;99.90;;;;;;5084498;28;20455;-63
2023/01/16 08:17:51;;;;;;;3.65;1.33;;;5.00;99.90;;;;;;5079328;28;20441;-62
2023/01/16 08:20:20;;;;;;;5.18;1.50;;;5.00;99.90;;;;;;5083577;28;20422;-62
2023/01/16 08:22:49;;;;;;;3.97;1.30;;;4.90;99.90;;;;;;5079206;28;20473;-63
2023/01/16 08:25:17;;;;;;;4.53;1.25;;;4.80;99.90;;;;;;5082521;28;20784;-61
2023/01/16 08:27:44;;;;;;;3.97;1.42;;;4.70;99.90;;;;;;5078619;28;20421;-62
2023/01/16 08:30:12;;;;;;;4.72;1.48;;;4.80;99.90;;;;;;5083148;28;20956;-62
2023/01/16 08:32:39;;;;;;;4.88;1.33;;;4.80;99.90;;;;;;5078952;28;20418;-61
2023/01/16 08:35:07;;;;;;;3.07;1.13;;;4.60;99.90;;;;;;5081696;28;20419;-61
2023/01/16 08:37:35;;;;;;;3.20;1.50;;;4.60;99.90;;;;;;5080840;28;20430;-64
2023/01/16 08:40:03;;;;;;;2.35;1.20;;;4.70;99.90;;;;;;5083931;28;20421;-65
2023/01/16 08:53:32;;;;;;;5.95;1.20;;;4.70;99.90;;;;;;5075774;28;20407;-65
2023/01/16 08:55:59;;;;;;;4.00;1.63;;;4.70;99.90;;;;;;5073397;28;21174;-64
2023/01/16 08:58:25;;;;;;;2.63;1.35;;;4.60;99.90;;;;;;5082144;28;20415;-65
2023/01/16 09:00:53;;;;;;;3.50;1.40;;;4.70;99.90;;;;;;5079841;28;20414;-65
2023/01/16 09:03:20;;;;;;;3.33;1.50;;;4.70;99.90;;;;;;5078901;28;20423;-65
2023/01/16 09:05:47;;;;;;;2.92;1.23;;;4.70;99.90;;;;;;5079512;28;20427;-66
2023/01/16 09:08:13;;;;;;;3.08;1.52;;;4.70;99.90;;;;;;5081348;28;20414;-66
2023/01/16 09:13:48;;;;;;;2.35;1.40;;;4.80;99.90;;;;;;5080991;28;20784;-64
2023/01/16 09:16:13;;;;;;;3.90;1.42;;;4.90;99.90;;;;;;5070940;28;20402;-61
2023/01/16 09:18:39;;;;;;;2.33;1.42;;;4.90;99.90;;;;;;5077527;28;20426;-64
2023/01/16 09:21:06;;;;;;;3.47;1.55;;;5.00;99.90;;;;;;5082294;28;20420;-65
2023/01/16 09:23:33;;;;;;;2.90;1.30;;;5.00;99.90;;;;;;5077521;28;20892;-66
2023/01/16 09:26:01;;;;;;;3.20;1.27;;;5.00;99.90;;;;;;5077834;28;20430;-66
2023/01/16 09:28:28;;;;;;;3.17;1.10;;;5.10;99.90;;;;;;5086672;28;20421;-64
2023/01/16 09:30:55;;;;;;;2.83;1.20;;;5.10;99.90;;;;;;5083589;28;20417;-65
2023/01/16 09:33:21;;;;;;;3.38;1.00;;;5.10;99.90;;;;;;5079002;28;20419;-65
2023/01/16 09:35:48;;;;;;;2.03;1.05;;;5.00;99.90;;;;;;5074509;28;20419;-63
2023/01/16 09:38:15;;;;;;;2.50;1.10;;;5.00;99.90;;;;;;5077625;28;20421;-63
2023/01/16 09:40:49;;;;;;;3.30;1.27;;;5.00;99.90;;;;;;5082645;28;20944;-65
2023/01/16 09:43:38;;;;;;;4.90;0.90;;;5.00;99.90;;;;;;5077881;28;20463;-64
2023/01/16 09:46:10;;;;;;;3.80;1.00;;;5.00;99.90;;;;;;5086417;28;20981;-65
2023/01/16 09:48:42;;;;;;;3.53;1.20;;;4.80;99.90;;;;;;5077655;28;20415;-61
2023/01/16 09:51:14;;;;;;;2.85;1.20;;;4.80;99.90;;;;;;5085972;28;20418;-61
2023/01/16 09:59:32;;;;;;;2.95;1.50;;;4.60;99.90;;;;;;5082867;28;20497;-62
2023/01/16 10:02:08;;;;;;;3.17;1.30;;;4.60;99.90;;;;;;5088592;28;20445;-63
2023/01/16 10:04:36;;;;;;;2.25;1.40;;;4.60;99.90;;;;;;5079305;28;20428;-61
2023/01/16 10:07:24;;;;;;;2.20;1.30;;;4.60;99.90;;;;;;5079703;28;20507;-64
2023/01/16 10:10:01;;;;;;;2.17;1.30;;;4.50;99.90;;;;;;5080236;28;20766;-62
2023/01/16 10:12:33;;;;;;;1.55;1.00;;;4.50;99.90;;;;;;5081488;28;20905;-62
2023/01/16 10:15:14;;;;;;;1.95;0.75;;;4.50;99.90;;;;;;5078548;28;20654;-63
2023/01/16 10:17:56;;;;;;;3.75;1.05;;;4.50;99.90;;;;;;5071397;28;20777;-61
2023/01/16 10:20:41;;;;;;;1.73;1.10;;;4.50;99.90;;;;;;5081412;28;20426;-61
2023/01/16 10:23:19;;;;;;;2.70;0.97;;;4.50;99.90;;;;;;5080564;28;20484;-62
2023/01/16 10:25:54;;;;;;;2.90;1.00;;;4.50;99.90;;;;;;5075858;28;20464;-61
2023/01/16 10:28:32;;;;;;;3.33;0.90;;;4.50;99.90;;;;;;5085104;28;20419;-65
2023/01/16 10:31:07;;;;;;;2.53;0.93;;;4.50;99.90;;;;;;5078888;28;20473;-64
2023/01/16 10:33:39;;;;;;;1.92;0.90;;;4.40;99.90;;;;;;5079179;28;20426;-64
2023/01/16 10:36:10;;;;;;;2.80;0.90;;;4.50;99.90;;;;;;5082705;28;20415;-65
2023/01/16 10:38:43;;;;;;;1.70;1.08;;;4.50;99.90;;;;;;5082033;28;20817;-64
2023/01/16 10:49:27;;;;;;;;;;;4.50;99.90;;;;;;5085153;28;19926;-63
2023/01/16 10:51:55;;;;;;;4.60;1.30;;;4.50;99.90;;;;;;5080368;28;20453;-63
2023/01/16 10:54:22;;;;;;;3.05;1.13;;;4.50;99.90;;;;;;5075114;28;21184;-63
2023/01/16 10:56:49;;;;;;;2.55;1.20;;;4.50;99.90;;;;;;5080896;28;20410;-61
2023/01/16 10:59:16;;;;;;;2.23;1.00;;;4.60;99.90;;;;;;5081371;28;20438;-63
2023/01/16 11:01:46;;;;;;;2.10;1.10;;;4.70;99.90;;;;;;5083992;28;20418;-64
2023/01/16 11:04:13;;;;;;;2.58;1.35;;;4.70;99.90;;;;;;5078697;28;20421;-63
2023/01/16 11:06:41;;;;;;;2.05;1.50;;;4.80;99.90;;;;;;5078605;28;20419;-63
2023/01/16 11:09:18;;;;;;;2.00;1.20;;;4.80;99.90;;;;;;5074474;28;20420;-64
2023/01/16 11:20:13;;;;;;;1.80;0.82;;;5.00;99.90;;;;;;5076131;28;20995;-63
2023/01/16 11:22:41;;;;;;;1.95;1.05;;;5.00;99.90;;;;;;5080550;28;20415;-63
2023/01/16 11:25:17;;;;;;;0.75;0.65;;;5.00;99.90;;;;;;5080969;28;20413;-62
2023/01/16 11:27:44;;;;;;;0.90;0.70;;;5.10;97.70;;;;;;5081698;28;20472;-63
2023/01/16 11:30:19;;;;;;;0.60;0.60;;;5.20;91.10;;;;;;5081850;28;20418;-62
2023/01/16 11:32:49;;;;;;;1.20;0.80;;;5.20;74.20;;;;;;5080874;28;20494;-62
2023/01/16 11:35:18;;;;;;;2.20;0.80;;;5.30;76.60;;;;;;5081299;28;20414;-63
2023/01/16 11:37:49;;;;;;;1.50;0.90;;;5.40;74.50;;;;;;5077099;28;20419;-63
2023/01/16 11:40:20;;;;;;;1.52;0.57;;;5.50;72.40;;;;;;5085899;28;20426;-62
2023/01/16 11:48:38;;;;;;;1.55;0.70;;;5.60;69.00;;;;;;5070032;28;20461;-62
2023/01/16 11:51:07;;;;;;;1.45;0.90;;;5.60;54.10;;;;;;5081904;28;20420;-63
2023/01/16 11:53:35;;;;;;;0.88;0.68;;;5.60;51.90;;;;;;5076329;28;20444;-63
2023/01/16 11:56:16;;;;;;;1.70;0.70;;;5.50;52.70;;;;;;5080398;28;20414;-65
2023/01/16 11:58:55;;;;;;;2.75;1.17;;;5.50;70.60;;;;;;5077278;28;20425;-62
2023/01/16 12:02:15;;;;;;;2.30;1.00;;;5.40;60.10;;;;;;5083466;28;20426;-64
2023/01/16 12:04:23;;;;;;;0.90;0.90;;;5.40;57.80;;;;;;5084613;28;20410;-62
2023/01/16 12:06:57;;;;;;;0.90;0.80;;;5.50;72.70;;;;;;5077272;28;20438;-64
2023/01/16 12:09:43;;;;;;;1.48;0.80;;;5.40;55.90;;;;;;5083813;28;20457;-64
2023/01/16 12:15:12;;;;;;;1.27;0.80;;;5.20;95.10;;;;;;5075444;28;20940;-62
2023/01/16 12:18:00;;;;;;;2.60;1.13;;;5.10;99.90;;;;;;5078964;28;20911;-62
2023/01/16 12:20:39;;;;;;;1.55;0.90;;;5.20;99.90;;;;;;5072068;28;20427;-62
2023/01/16 12:23:34;;;;;;;1.30;0.85;;;5.10;99.90;;;;;;5074433;28;20428;-59
2023/01/16 12:26:12;;;;;;;2.05;1.00;;;5.10;99.90;;;;;;5083175;28;20397;-62
2023/01/16 12:28:47;;;;;;;1.30;0.90;;;5.20;99.90;;;;;;5087255;28;20429;-61
2023/01/16 12:31:36;;;;;;;1.55;0.82;;;5.30;99.90;;;;;;5081500;28;20404;-62
2023/01/16 12:34:44;;;;;;;2.40;0.90;;;5.50;99.90;;;;;;5071998;28;20419;-63
2023/01/16 12:37:29;;;;;;;1.15;0.90;;;5.40;99.90;;;;;;5019743;28;20419;-63
2023/01/16 12:40:14;;;;;;;1.10;0.70;;;5.30;94.70;;;;;;5082563;28;20431;-63
2023/01/16 12:45:45;;;;;;;1.30;0.90;;;5.20;97.50;;;;;;5083245;28;20985;-63
2023/01/16 12:48:36;;;;;;;2.53;0.95;;;5.10;99.90;;;;;;5077088;28;20477;-64
2023/01/16 12:51:17;;;;;;;1.73;1.05;;;5.20;99.90;;;;;;5072400;28;20780;-62
2023/01/16 12:54:19;;;;;;;1.55;0.80;;;5.20;99.90;;;;;;5078750;28;20467;-61
2023/01/16 12:56:59;;;;;;;1.35;0.90;;;5.30;94.20;;;;;;5079906;28;20412;-64
2023/01/16 12:59:29;;;;;;;1.08;0.88;;;5.30;94.40;;;;;;5083361;28;20840;-63
2023/01/16 13:02:05;;;;;;;1.08;0.80;;;5.30;87.20;;;;;;5079276;28;20411;-61
2023/01/16 13:04:38;;;;;;;0.93;0.80;;;5.30;79.60;;;;;;5080000;28;20457;-63
2023/01/16 13:07:07;;;;;;;1.30;0.90;;;5.30;80.50;;;;;;5081075;28;20423;-63
2023/01/16 13:09:38;;;;;;;1.42;0.80;;;5.30;90.80;;;;;;5080382;28;20446;-65
2023/01/16 13:15:02;;;;;;;0.95;0.88;;;5.20;76.90;;;;;;5075740;28;20406;-64
2023/01/16 13:17:41;;;;;;;2.25;1.00;;;5.20;93.00;;;;;;5080668;28;20419;-65
2023/01/16 13:20:13;;;;;;;1.58;1.00;;;5.20;94.40;;;;;;5073094;28;20924;-69
2023/01/16 13:22:44;;;;;;;1.92;1.05;;;5.20;93.50;;;;;;5084700;28;20483;-65
2023/01/16 13:25:19;;;;;;;1.00;0.80;;;5.20;99.90;;;;;;5081166;28;20410;-66
2023/01/16 13:27:51;;;;;;;1.20;0.90;;;5.00;99.90;;;;;;5078867;28;20451;-66
2023/01/16 13:30:19;;;;;;;1.38;0.70;;;5.00;99.90;;;;;;5085707;28;20412;-63
2023/01/16 13:32:50;;;;;;;1.63;0.90;;;5.00;99.90;;;;;;5079133;28;20427;-64
2023/01/16 13:35:21;;;;;;;3.40;2.30;;;4.90;99.90;;;;;;5079284;28;20427;-62
2023/01/16 13:38:10;;;;;;;15.15;8.48;;;4.90;99.90;;;;;;5081644;28;20821;-62
2023/01/16 13:40:54;;;;;;;1.40;0.90;;;4.90;99.90;;;;;;5069079;28;20958;-63
2023/01/16 13:46:13;;;;;;;1.20;0.93;;;4.90;99.90;;;;;;5084737;28;20671;-63
2023/01/16 13:48:40;;;;;;;1.02;0.77;;;4.90;99.90;;;;;;5077769;28;20410;-67
2023/01/16 13:51:14;;;;;;;2.30;1.75;;;4.80;99.90;;;;;;5078394;28;20412;-62
2023/01/16 13:53:42;;;;;;;1.55;1.30;;;4.90;99.90;;;;;;5076802;28;20442;-60
2023/01/16 13:56:14;;;;;;;1.90;1.20;;;4.90;99.90;;;;;;5078644;28;20418;-63
2023/01/16 13:58:42;;;;;;;0.90;0.90;;;4.80;99.90;;;;;;5079914;28;20769;-64
2023/01/16 14:01:35;;;;;;;1.05;0.80;;;4.80;99.90;;;;;;5079307;28;20427;-66
2023/01/16 14:04:28;;;;;;;1.07;0.97;;;4.80;99.90;;;;;;5070315;28;20420;-67
2023/01/16 14:10:00;;;;;;;2.15;1.05;;;5.00;99.90;;;;;;5084052;28;20422;-63
2023/01/16 14:12:35;;;;;;;2.08;1.10;;;5.10;99.90;;;;;;5083857;28;20415;-60
2023/01/16 14:18:14;;;;;;;2.23;1.00;;;5.30;99.90;;;;;;5078907;28;20921;-64
2023/01/16 14:20:51;;;;;;;1.90;0.80;;;5.20;99.90;;;;;;5082021;28;20503;-63
2023/01/16 14:26:16;;;;;;;1.48;1.10;;;5.20;99.90;;;;;;5081124;28;20447;-61
2023/01/16 14:28:48;;;;;;;1.05;0.85;;;5.10;99.90;;;;;;5081489;28;21074;-62
2023/01/16 14:31:25;;;;;;;0.88;0.80;;;5.10;99.90;;;;;;5078932;28;20435;-60